Portada
METAR-TAF:

METAR-TAF

Aeropuertos :

Bermudas, Bermudas

Aeropuerto Internacional L.F. Wade

latitud: 32-22N, longitud: 064-41W, altitud: 6 m

Observación

El informe se hizo hace 30 minutos, a las 08:55 UTC
Viento 14 kt del este
Temperatura 23°C
Humedad 73%
Presión 1021 hPa
Visibilidad 10 km o más
Escasas nubes a una altura de 2800 ft

METAR: TXKF 240855Z 10014KT 9999 FEW028 23/18 Q1021

Hora: 06:25 (09:25 UTC)

Pronóstico

El informe se hizo hace 3 horas y 53 minutos, a las 05:32 UTC
Pronóstico válido del 24 a las 06 UTC al 25 a las 06 UTC
Viento 18 kt del este-sureste
Visibilidad 10 km o más
Nubes dispersas a una altura de 3000 ft

TAF: TXKF 240532Z 2406/2506 11018KT 9999 SCT030

Observaciones y pronósticos meteorológicos de más de 4000 aeropuertos (mensajes METAR y TAF).

Los puntos amarillos y rojos representan las estaciones disponibles.

Ponga el ratón en el punto deseado para ver el nombre de la estación.

Haga clic para ver las observaciones y los pronósticos meteorológicos.

Para cambiar el mapa : haga clic en los botones verdes con una cruz de color negro para hacer un zoom, en el botón verde con un guión para alejar o en las flechas verdes para mapas adyacentes.


METAR-TAF: